Impacts TAF Board INFO
FOR SITUATIONAL AWARENESS. NOT TO BE USED FOR FLIGHT PLANNING PURPOSES.
IDs:

KSTL - St Louis/Lambert Int, MO, US

Issued at 2058 UTC 18 Jan 2018
Updated at 2120 UTC 18 Jan 2018
Potential Impact None Slight Moderate High
Time2051Z 18/22Z 18/23Z 19/00Z 19/01Z 19/02Z 19/03Z 19/04Z 19/05Z 19/06Z 19/07Z 19/08Z 19/09Z 19/10Z>>
Type OBS PRVL PRVL PRVL PRVL PRVL PRVL PRVL PRVL PRVL PRVL PRVL PRVL PRVL
VIS 10 >6 >6 >6 >6 >6 >6 >6 >6 >6 >6 >6 >6 >6
CIG -- -- -- -- -- -- -- -- -- -- -- -- -- --
Cover SCT SKC FEW FEW FEW FEW FEW FEW FEW FEW FEW FEW FEW FEW
FltCat VFR VFR VFR VFR VFR VFR VFR VFR VFR VFR VFR VFR VFR VFR
WX -- -- -- -- -- -- -- -- -- -- -- -- -- --
WDir 230 230 210 210 210 210 210 210 210 210 210 210 210 210
WSpd 13 13 8 8 8 8 8 8 8 8 8 8 8 8
WGst -- -- -- -- -- -- -- -- -- -- -- -- -- --

Raw TAF
KSTL 182058Z 1821/1924 23013KT P6SM SKC
  FM182300 21008KT P6SM FEW250


Raw METAR
KSTL 182051Z 23013KT 10SM SCT250 08/M11 A3020 RMK AO2 SLP238 T00781106 56025
KSTL 181951Z 22013G19KT 10SM FEW250 07/M11 A3022 RMK AO2 SLP245 T00671111
KSTL 181851Z 21012KT 10SM FEW250 05/M11 A3024 RMK AO2 SLP252 T00501111

METAR Board
Radar Display
Forecast Discussion

FOR SITUATIONAL AWARENESS. NOT TO BE USED FOR FLIGHT PLANNING PURPOSES.